createdAt,value
2017-07-01T00:00:35.332Z,70.96
2017-07-01T00:01:35.332Z,71.05
2017-07-01T00:02:35.340Z,71.82
2017-07-01T00:03:35.335Z,71.63
2017-07-01T00:04:35.337Z,72.49
2017-07-01T00:05:35.340Z,72.11
2017-07-01T00:06:35.339Z,72.01
2017-07-01T00:07:35.344Z,71.34
2017-07-01T00:08:35.343Z,70.86
2017-07-01T00:09:35.346Z,70
2017-07-01T00:10:35.343Z,69.9
2017-07-01T00:11:35.349Z,69.81
2017-07-01T00:12:35.356Z,69.52
2017-07-01T00:13:35.363Z,69.13
2017-07-01T00:14:35.045Z,69.52
2017-07-01T00:15:35.361Z,69.33
2017-07-01T00:16:35.359Z,69.33
2017-07-01T00:17:35.359Z,69.52
2017-07-01T00:18:35.366Z,69.36
2017-07-01T00:19:35.366Z,69.74
2017-07-01T00:20:35.371Z,68.69
2017-07-01T00:21:35.051Z,68.69
2017-07-01T00:22:35.367Z,68.59
2017-07-01T00:23:35.369Z,68.12
2017-07-01T00:24:35.371Z,67.25
2017-07-01T00:25:35.370Z,67.44
2017-07-01T00:26:35.371Z,67.25
2017-07-01T00:27:35.374Z,67.25
2017-07-01T00:28:35.381Z,66.67
2017-07-01T00:29:35.385Z,67.54
2017-07-01T00:30:35.384Z,68.3
2017-07-01T00:31:35.391Z,68.21
2017-07-01T00:32:35.072Z,68.21
2017-07-01T00:33:35.074Z,68.5
2017-07-01T00:34:35.077Z,68.98
2017-07-01T00:35:35.391Z,69.56
2017-07-01T00:36:35.081Z,69.26
2017-07-01T00:37:35.396Z,69.65
2017-07-01T00:38:35.086Z,68.5
2017-07-01T00:39:35.425Z,68.69
2017-07-01T00:40:35.398Z,69.2
2017-07-01T00:41:35.088Z,68.3
2017-07-01T00:42:35.405Z,68.53
2017-07-01T00:43:35.409Z,68.53
2017-07-01T00:44:35.409Z,66.49
2017-07-01T00:45:35.098Z,65.81
2017-07-01T00:46:35.413Z,66.39
2017-07-01T00:47:35.409Z,65.91
2017-07-01T00:48:35.414Z,65.62
2017-07-01T00:49:35.412Z,65.33
2017-07-01T00:50:35.417Z,66.03
2017-07-01T00:51:35.118Z,65.81
2017-07-01T00:52:35.427Z,66.19
2017-07-01T00:53:35.433Z,65.23
2017-07-01T00:54:35.429Z,65.43
2017-07-01T00:55:35.436Z,65.81
2017-07-01T00:56:35.427Z,65.81
2017-07-01T00:57:35.431Z,65.81
2017-07-01T00:58:35.433Z,66.49
2017-07-01T00:59:35.436Z,66
2017-07-01T01:00:35.129Z,65.72
2017-07-01T01:01:35.440Z,65.72
2017-07-01T01:02:35.447Z,66
2017-07-01T01:03:35.450Z,66.58
2017-07-01T01:04:35.136Z,66.96
2017-07-01T01:05:35.452Z,66.29
2017-07-01T01:06:35.552Z,66.58
2017-07-01T01:07:35.144Z,66.58
2017-07-01T01:08:35.143Z,66.39
2017-07-01T01:09:35.460Z,66.49
2017-07-01T01:10:35.149Z,66.86
2017-07-01T01:11:35.148Z,66.49
2017-07-01T01:12:35.463Z,66.39
2017-07-01T01:13:35.469Z,67.06
2017-07-01T01:14:35.157Z,66.49
2017-07-01T01:15:35.464Z,66.49
2017-07-01T01:16:35.467Z,65.91
2017-07-01T01:17:35.467Z,66.77
2017-07-01T01:18:35.474Z,66.1
2017-07-01T01:19:35.476Z,65.91
2017-07-01T01:20:35.473Z,66.1
2017-07-01T01:21:40.337Z,65.91
2017-07-01T01:22:35.483Z,66.29
2017-07-01T01:23:35.482Z,66.19
2017-07-01T01:24:35.482Z,66.39
2017-07-01T01:25:35.485Z,65.56
2017-07-01T01:26:35.486Z,65.43
2017-07-01T01:27:35.490Z,65.33
2017-07-01T01:28:35.493Z,65.81
2017-07-01T01:29:35.494Z,65.72
2017-07-01T01:30:35.186Z,65.43
2017-07-01T01:31:35.499Z,65.62
2017-07-01T01:32:35.499Z,67.16
2017-07-01T01:33:35.504Z,66.39
2017-07-01T01:34:35.502Z,66.39
2017-07-01T01:35:35.507Z,66.1
2017-07-01T01:36:35.508Z,66.58
2017-07-01T01:37:35.198Z,66.1
2017-07-01T01:38:35.510Z,66.58
2017-07-01T01:39:35.512Z,66.39
2017-07-01T01:40:35.515Z,66.77
2017-07-01T01:41:35.517Z,66.67
2017-07-01T01:42:35.521Z,67.06
2017-07-01T01:43:35.206Z,67.06
2017-07-01T01:44:35.520Z,67.25
2017-07-01T01:45:35.522Z,67.16
2017-07-01T01:46:35.529Z,68.12
2017-07-01T01:47:35.534Z,68.21
2017-07-01T01:48:35.219Z,68.3
2017-07-01T01:49:35.531Z,67.63
2017-07-01T01:50:35.533Z,67.44
2017-07-01T01:51:35.535Z,67.54
2017-07-01T01:52:35.544Z,67.73
2017-07-01T01:53:35.226Z,67.54
2017-07-01T01:54:35.229Z,68.3
2017-07-01T01:55:35.544Z,67.83
2017-07-01T01:56:35.542Z,68.02
2017-07-01T01:57:35.545Z,68.02
2017-07-01T01:58:35.245Z,68.21
2017-07-01T01:59:35.249Z,68.5
2017-07-01T02:00:35.551Z,68.4
2017-07-01T02:01:35.558Z,68.69
2017-07-01T02:02:35.244Z,68.79
2017-07-01T02:03:35.559Z,69.26
2017-07-01T02:04:35.562Z,69.07
2017-07-01T02:05:35.562Z,68.59
2017-07-01T02:06:35.565Z,68.59
2017-07-01T02:07:35.565Z,68.98
2017-07-01T02:08:35.256Z,69.17
2017-07-01T02:09:35.263Z,69.33
2017-07-01T02:10:35.263Z,69.42
2017-07-01T02:11:35.574Z,69.81
2017-07-01T02:12:35.609Z,69.52
2017-07-01T02:13:35.576Z,69.52
2017-07-01T02:14:35.586Z,69.23
2017-07-01T02:15:35.581Z,69.62
2017-07-01T02:16:35.585Z,69.33
2017-07-01T02:17:35.582Z,69.81
2017-07-01T02:18:35.582Z,69.52
2017-07-01T02:19:35.581Z,70.57
2017-07-01T02:20:35.583Z,69.9
2017-07-01T02:21:35.584Z,70.09
2017-07-01T02:22:35.591Z,70.38
2017-07-01T02:23:35.596Z,69.81
2017-07-01T02:24:35.588Z,70.09
2017-07-01T02:25:35.591Z,70.09
2017-07-01T02:26:35.293Z,70.86
2017-07-01T02:27:35.282Z,70.57
2017-07-01T02:28:35.601Z,70.76
2017-07-01T02:29:35.602Z,70.48
2017-07-01T02:30:35.598Z,71.25
2017-07-01T02:31:35.598Z,71.15
2017-07-01T02:32:35.599Z,71.82
2017-07-01T02:33:35.599Z,71.63
2017-07-01T02:34:35.603Z,70.57
2017-07-01T02:35:35.605Z,70.67
2017-07-01T02:36:35.607Z,71.25
2017-07-01T02:37:35.658Z,71.15
2017-07-01T02:38:35.610Z,71.44
2017-07-01T02:39:35.610Z,71.92
2017-07-01T02:40:35.611Z,71.72
2017-07-01T02:41:35.613Z,71.92
2017-07-01T02:42:35.618Z,71.44
2017-07-01T02:43:35.616Z,71.44
2017-07-01T02:44:35.621Z,71.53
2017-07-01T02:45:35.624Z,71.92
2017-07-01T02:46:35.621Z,72.59
2017-07-01T02:47:35.622Z,72.49
2017-07-01T02:48:35.622Z,72.55
2017-07-01T02:49:35.626Z,72.55
2017-07-01T02:50:35.627Z,72.64
2017-07-01T02:51:35.625Z,72.84
2017-07-01T02:52:35.840Z,72.55
2017-07-01T02:53:35.631Z,72.45
2017-07-01T02:54:35.632Z,73.32
2017-07-01T02:55:35.631Z,73.32
2017-07-01T02:56:35.641Z,72.84
2017-07-01T02:57:35.637Z,72.36
2017-07-01T02:58:35.635Z,73.13
2017-07-01T02:59:35.638Z,72.64
2017-07-01T03:00:35.639Z,72.64
2017-07-01T03:01:35.640Z,72.74
2017-07-01T03:02:35.640Z,72.55
2017-07-01T03:03:35.643Z,73.8
2017-07-01T03:04:35.643Z,73.22
2017-07-01T03:05:35.645Z,73.55
2017-07-01T03:06:35.648Z,72.59
2017-07-01T03:07:35.699Z,73.45
2017-07-01T03:08:35.656Z,73.74
2017-07-01T03:09:35.693Z,73.07
2017-07-01T03:10:35.680Z,73.35
2017-07-01T03:11:35.671Z,72.88
2017-07-01T03:12:35.668Z,72.49
2017-07-01T03:13:35.673Z,72.59
2017-07-01T03:14:35.358Z,72.78
2017-07-01T03:15:35.679Z,73.51
2017-07-01T03:16:35.675Z,74.18
2017-07-01T03:17:35.671Z,73.16
2017-07-01T03:18:35.673Z,72.55
2017-07-01T03:19:35.676Z,73.35
2017-07-01T03:20:35.670Z,73.51
2017-07-01T03:21:35.676Z,73.61
2017-07-01T03:22:41.575Z,73.41
2017-07-01T03:23:35.687Z,74.18
2017-07-01T03:24:35.717Z,74.08
2017-07-01T03:25:35.681Z,74.27
2017-07-01T03:26:35.683Z,73.99
2017-07-01T03:27:35.681Z,74.27
2017-07-01T03:28:35.681Z,73.99
2017-07-01T03:29:35.679Z,73.9
2017-07-01T03:30:35.688Z,73.99
2017-07-01T03:31:35.682Z,73.9
2017-07-01T03:32:35.373Z,74.66
2017-07-01T03:33:35.685Z,74.66
2017-07-01T03:34:35.697Z,74.85
2017-07-01T03:35:35.692Z,74.85
2017-07-01T03:36:35.697Z,75.04
2017-07-01T03:37:35.387Z,75.43
2017-07-01T03:38:35.700Z,75.33
2017-07-01T03:39:35.699Z,75.04
2017-07-01T03:40:35.389Z,75.62
2017-07-01T03:41:35.702Z,75.62
2017-07-01T03:42:35.699Z,75.14
2017-07-01T03:43:35.698Z,75.04
2017-07-01T03:44:35.715Z,74.47
2017-07-01T03:45:35.700Z,74.37
2017-07-01T03:46:35.705Z,74.85
2017-07-01T03:47:35.703Z,74.57
2017-07-01T03:48:35.710Z,74.66
2017-07-01T03:49:35.711Z,74.57
2017-07-01T03:50:35.717Z,74.76
2017-07-01T03:51:35.717Z,75.43
2017-07-01T03:52:35.711Z,75.14
2017-07-01T03:53:35.709Z,75.52
2017-07-01T03:54:35.713Z,76.19
2017-07-01T03:55:35.713Z,75.23
2017-07-01T03:56:35.718Z,75.04
2017-07-01T03:57:35.410Z,74.95
2017-07-01T03:58:35.725Z,75.33
2017-07-01T03:59:35.720Z,75.23
2017-07-01T04:00:35.723Z,74.37
2017-07-01T04:01:35.725Z,74.85
2017-07-01T04:02:35.761Z,74.37
2017-07-01T04:03:35.412Z,74.95
2017-07-01T04:04:35.733Z,74.95
2017-07-01T04:05:35.723Z,75.33
2017-07-01T04:06:35.727Z,74.95
2017-07-01T04:07:35.729Z,75.18
2017-07-01T04:08:35.839Z,74.02
2017-07-01T04:09:35.745Z,74.18
2017-07-01T04:10:35.746Z,73.93
2017-07-01T04:11:35.742Z,75.23
2017-07-01T04:12:35.431Z,75.04
2017-07-01T04:13:35.747Z,75.08
2017-07-01T04:14:35.745Z,74.02
2017-07-01T04:15:35.746Z,74.41
2017-07-01T04:16:35.757Z,75.08
2017-07-01T04:17:35.744Z,75.46
2017-07-01T04:18:35.743Z,73.83
2017-07-01T04:19:35.434Z,73.74
2017-07-01T04:20:35.751Z,74.02
2017-07-01T04:21:35.766Z,73.83
2017-07-01T04:22:35.450Z,73.45
2017-07-01T04:23:37.912Z,74.31
2017-07-01T04:24:35.764Z,73.74
2017-07-01T04:25:35.762Z,74.79
2017-07-01T04:26:35.770Z,74.02
2017-07-01T04:27:35.760Z,73.93
2017-07-01T04:28:35.769Z,74.12
2017-07-01T04:29:35.454Z,74.02
2017-07-01T04:30:35.766Z,73.07
2017-07-01T04:31:35.775Z,73.26
2017-07-01T04:32:35.461Z,73.45
2017-07-01T04:33:35.770Z,73.93
2017-07-01T04:34:35.461Z,73.45
2017-07-01T04:35:35.774Z,73.35
2017-07-01T04:36:35.779Z,74.31
2017-07-01T04:37:35.775Z,73.93
2017-07-01T04:38:36.625Z,73.65
2017-07-01T04:39:35.811Z,73.49
2017-07-01T04:40:35.789Z,73.49
2017-07-01T04:41:35.794Z,72.72
2017-07-01T04:42:35.791Z,73
2017-07-01T04:43:35.784Z,73
2017-07-01T04:44:35.793Z,73.07
2017-07-01T04:45:35.794Z,73.39
2017-07-01T04:46:35.798Z,72.49
2017-07-01T04:47:35.807Z,73.26
2017-07-01T04:48:35.797Z,73.16
2017-07-01T04:49:35.810Z,73.45
2017-07-01T04:50:35.486Z,73.74
2017-07-01T04:51:35.814Z,73.93
2017-07-01T04:52:35.809Z,74.02
2017-07-01T04:53:35.817Z,74.02
2017-07-01T04:54:35.815Z,73.93
2017-07-01T04:55:35.816Z,74.12
2017-07-01T04:56:35.824Z,73.45
2017-07-01T04:57:35.814Z,72.88
2017-07-01T04:58:35.818Z,72.97
2017-07-01T04:59:35.500Z,73.45
2017-07-01T05:00:35.820Z,72.97
2017-07-01T05:01:35.834Z,72.78
2017-07-01T05:02:35.521Z,72.63
2017-07-01T05:03:35.827Z,72.63
2017-07-01T05:04:35.519Z,73.3
2017-07-01T05:05:35.520Z,72.81
2017-07-01T05:06:35.830Z,72.72
2017-07-01T05:07:35.833Z,72.43
2017-07-01T05:08:35.524Z,72.72
2017-07-01T05:09:36.624Z,72.81
2017-07-01T05:10:35.837Z,72.53
2017-07-01T05:11:35.851Z,71.57
2017-07-01T05:12:35.528Z,71.47
2017-07-01T05:13:35.847Z,71.47
2017-07-01T05:14:35.896Z,72.43
2017-07-01T05:15:35.852Z,72.91
2017-07-01T05:16:35.853Z,72.91
2017-07-01T05:17:35.540Z,72.3
2017-07-01T05:18:35.852Z,72.43
2017-07-01T05:19:35.540Z,73.26
2017-07-01T05:20:35.857Z,73.26
2017-07-01T05:21:35.857Z,73.39
2017-07-01T05:22:35.547Z,73.07
2017-07-01T05:23:35.866Z,73.49
2017-07-01T05:24:35.918Z,73.2
2017-07-01T05:25:35.870Z,72.43
2017-07-01T05:26:35.874Z,72.63
2017-07-01T05:27:35.554Z,73.2
2017-07-01T05:28:35.557Z,73.3
2017-07-01T05:29:35.557Z,73.49
2017-07-01T05:30:35.872Z,72.43
2017-07-01T05:31:35.879Z,72.33
2017-07-01T05:32:35.876Z,71.76
2017-07-01T05:33:35.565Z,71.22
2017-07-01T05:34:35.879Z,71.22
2017-07-01T05:35:35.880Z,71.12
2017-07-01T05:36:35.571Z,71.22
2017-07-01T05:37:35.896Z,71.41
2017-07-01T05:38:35.885Z,71.98
2017-07-01T05:39:41.748Z,71.03
2017-07-01T05:40:35.577Z,70.78
2017-07-01T05:41:35.896Z,69.4
2017-07-01T05:42:35.895Z,69.43
2017-07-01T05:43:35.898Z,69.4
2017-07-01T05:44:35.587Z,69.81
2017-07-01T05:45:35.590Z,69.24
2017-07-01T05:46:35.904Z,68.37
2017-07-01T05:47:35.907Z,68.85
2017-07-01T05:48:35.911Z,69.05
2017-07-01T05:49:35.916Z,69.34
2017-07-01T05:50:35.915Z,69.14
2017-07-01T05:51:35.915Z,69.53
2017-07-01T05:52:35.929Z,69.62
2017-07-01T05:53:35.928Z,68.85
2017-07-01T05:54:35.932Z,69.24
2017-07-01T05:55:35.620Z,69.72
2017-07-01T05:56:35.935Z,69.05
2017-07-01T05:57:35.938Z,69.34
2017-07-01T05:58:35.938Z,69.05
2017-07-01T05:59:35.938Z,69.43
2017-07-01T06:00:35.944Z,68.85
2017-07-01T06:01:35.631Z,68.57
2017-07-01T06:02:35.947Z,68.57
2017-07-01T06:03:35.957Z,68.66
2017-07-01T06:04:35.640Z,67.83
2017-07-01T06:05:35.955Z,67.64
2017-07-01T06:06:35.966Z,67.74
2017-07-01T06:07:35.972Z,67.45
2017-07-01T06:08:35.649Z,67.64
2017-07-01T06:09:35.969Z,67.83
2017-07-01T06:10:36.871Z,66.97
2017-07-01T06:11:35.973Z,67.25
2017-07-01T06:12:35.974Z,67.25
2017-07-01T06:13:35.979Z,67.64
2017-07-01T06:14:35.989Z,67.74
2017-07-01T06:15:35.994Z,68.02
2017-07-01T06:16:35.672Z,68.12
2017-07-01T06:17:35.991Z,67.83
2017-07-01T06:18:35.995Z,67.16
2017-07-01T06:19:36.000Z,66.91
2017-07-01T06:20:35.686Z,65.37
2017-07-01T06:21:36.004Z,64.69
2017-07-01T06:22:36.010Z,63.86
2017-07-01T06:23:36.006Z,63.09
2017-07-01T06:24:36.012Z,62.8
2017-07-01T06:25:37.916Z,62.13
2017-07-01T06:26:35.709Z,61.94
2017-07-01T06:27:36.024Z,62.41
2017-07-01T06:28:36.025Z,61.55
2017-07-01T06:29:36.039Z,61.29
2017-07-01T06:30:36.038Z,60.81
2017-07-01T06:31:35.730Z,60.72
2017-07-01T06:32:36.048Z,60.91
2017-07-01T06:33:36.044Z,61.29
2017-07-01T06:34:36.047Z,61.1
2017-07-01T06:35:36.061Z,61.94
2017-07-01T06:36:36.059Z,61.55
2017-07-01T06:37:35.745Z,60.69
2017-07-01T06:38:36.063Z,61.46
2017-07-01T06:39:36.064Z,61.07
2017-07-01T06:40:36.081Z,62.03
2017-07-01T06:41:35.765Z,63.64
2017-07-01T06:42:36.082Z,64.22
2017-07-01T06:43:36.081Z,65.56
2017-07-01T06:44:36.084Z,65.23
2017-07-01T06:45:36.085Z,62.87
2017-07-01T06:46:35.777Z,63.73
2017-07-01T06:47:36.093Z,63.25
2017-07-01T06:48:36.107Z,63.35
2017-07-01T06:49:36.109Z,63.25
2017-07-01T06:50:36.109Z,62.96
2017-07-01T06:51:36.110Z,62.87
2017-07-01T06:52:36.114Z,62.48
2017-07-01T06:53:36.113Z,62.58
2017-07-01T06:54:36.116Z,62.29
2017-07-01T06:55:36.121Z,62.38
2017-07-01T06:56:36.125Z,61.91
2017-07-01T06:57:36.134Z,62.58
2017-07-01T06:58:36.133Z,62.1
2017-07-01T06:59:36.165Z,62.1
2017-07-01T07:00:36.140Z,61.91
2017-07-01T07:01:35.831Z,62.13
2017-07-01T07:02:36.145Z,60.78
2017-07-01T07:03:36.148Z,61.33
2017-07-01T07:04:36.155Z,60.97
2017-07-01T07:05:36.157Z,60.39
2017-07-01T07:06:35.848Z,60.59
2017-07-01T07:07:35.849Z,60.69
2017-07-01T07:08:36.164Z,60.49
2017-07-01T07:09:36.171Z,60.49
2017-07-01T07:10:36.175Z,60.59
2017-07-01T07:11:36.230Z,60.21
2017-07-01T07:12:36.188Z,60.39
2017-07-01T07:13:36.190Z,61.36
2017-07-01T07:14:36.192Z,60.69
2017-07-01T07:15:35.877Z,61.23
2017-07-01T07:16:36.194Z,61.14
2017-07-01T07:17:36.205Z,61.43
2017-07-01T07:18:36.232Z,61.52
2017-07-01T07:19:36.204Z,61.33
2017-07-01T07:20:36.209Z,61.23
2017-07-01T07:21:36.214Z,61.07
2017-07-01T07:22:36.215Z,60.88
2017-07-01T07:23:36.235Z,60.49
2017-07-01T07:24:36.227Z,60.78
2017-07-01T07:25:36.235Z,60.69
2017-07-01T07:26:36.684Z,60.88
2017-07-01T07:27:36.235Z,60.78
2017-07-01T07:28:36.235Z,60.39
2017-07-01T07:29:36.240Z,60.49
2017-07-01T07:30:36.249Z,60.97
2017-07-01T07:31:36.248Z,60.11
2017-07-01T07:32:35.941Z,59.63
2017-07-01T07:33:36.255Z,59.17
2017-07-01T07:34:36.259Z,58.7
2017-07-01T07:35:36.301Z,59.66
2017-07-01T07:36:36.265Z,59.75
2017-07-01T07:37:36.270Z,59.47
2017-07-01T07:38:36.282Z,58.7
2017-07-01T07:39:36.294Z,57.73
2017-07-01T07:40:36.281Z,58.31
2017-07-01T07:41:35.970Z,56.87
2017-07-01T07:42:36.288Z,57.92
2017-07-01T07:43:36.299Z,58.28
2017-07-01T07:44:36.297Z,58.86
2017-07-01T07:45:36.313Z,58.47
2017-07-01T07:46:36.318Z,58.47
2017-07-01T07:47:36.315Z,58.6
2017-07-01T07:48:36.317Z,57.54
2017-07-01T07:49:36.316Z,58.22
2017-07-01T07:50:36.322Z,57.45
2017-07-01T07:51:36.329Z,57.45
2017-07-01T07:52:36.324Z,57.54
2017-07-01T07:53:36.332Z,57.06
2017-07-01T07:54:36.023Z,57.25
2017-07-01T07:55:36.337Z,57.35
2017-07-01T07:56:36.340Z,57.06
2017-07-01T07:57:36.361Z,56.96
2017-07-01T07:58:36.358Z,56.29
2017-07-01T07:59:36.362Z,56.96
2017-07-01T08:00:36.362Z,57.25
2017-07-01T08:01:36.363Z,57.54
2017-07-01T08:02:36.368Z,57.45
2017-07-01T08:03:36.368Z,57.7
2017-07-01T08:04:36.388Z,57.51
2017-07-01T08:05:36.383Z,57.99
2017-07-01T08:06:36.391Z,57.51
2017-07-01T08:07:36.388Z,58.28
2017-07-01T08:08:36.390Z,58.28
2017-07-01T08:09:36.387Z,58.37
2017-07-01T08:10:36.392Z,59.15
2017-07-01T08:11:36.397Z,58.67
2017-07-01T08:12:36.940Z,57.7
2017-07-01T08:13:36.406Z,57.22
2017-07-01T08:14:36.427Z,57.42
2017-07-01T08:15:36.412Z,56.93
2017-07-01T08:16:36.100Z,57.7
2017-07-01T08:17:36.427Z,57.03
2017-07-01T08:18:36.430Z,56.87
2017-07-01T08:19:36.429Z,56.87
2017-07-01T08:20:36.439Z,56.87
2017-07-01T08:21:36.438Z,56.38
2017-07-01T08:22:36.436Z,56.2
2017-07-01T08:23:36.442Z,56.41
2017-07-01T08:24:36.442Z,55.71
2017-07-01T08:25:36.447Z,55.74
2017-07-01T08:26:36.451Z,56.03
2017-07-01T08:27:36.653Z,54.68
2017-07-01T08:28:36.465Z,55
2017-07-01T08:29:36.461Z,55
2017-07-01T08:30:36.477Z,54.22
2017-07-01T08:31:36.477Z,53.84
2017-07-01T08:32:36.160Z,53.55
2017-07-01T08:33:36.167Z,53.45
2017-07-01T08:34:36.538Z,53.74
2017-07-01T08:35:36.488Z,53.94
2017-07-01T08:36:36.493Z,53.55
2017-07-01T08:37:36.494Z,54.42
2017-07-01T08:38:36.497Z,54.2
2017-07-01T08:39:36.501Z,54.2
2017-07-01T08:40:36.506Z,53.81
2017-07-01T08:41:36.511Z,54.1
2017-07-01T08:42:40.167Z,54.49
2017-07-01T08:43:36.518Z,54.39
2017-07-01T08:44:36.521Z,54.87
2017-07-01T08:45:36.527Z,55.16
2017-07-01T08:46:36.530Z,53.62
2017-07-01T08:47:36.533Z,53.55
2017-07-01T08:48:36.550Z,53.55
2017-07-01T08:49:36.541Z,52.97
2017-07-01T08:50:36.239Z,52.52
2017-07-01T08:51:36.550Z,52.59
2017-07-01T08:52:36.556Z,52.42
2017-07-01T08:53:36.566Z,51.75
2017-07-01T08:54:36.567Z,50.98
2017-07-01T08:55:36.573Z,50.62
2017-07-01T08:56:36.572Z,50.42
2017-07-01T08:57:36.581Z,49.37
2017-07-01T08:58:36.587Z,48.42
2017-07-01T08:59:36.619Z,49.19
2017-07-01T09:00:36.603Z,47.48
2017-07-01T09:01:36.599Z,46.83
2017-07-01T09:02:36.602Z,46.73
2017-07-01T09:03:36.608Z,47.12
2017-07-01T09:04:36.614Z,46.75
2017-07-01T09:05:36.622Z,46.56
2017-07-01T09:06:36.634Z,46.73
2017-07-01T09:07:36.631Z,47.12
2017-07-01T09:08:36.636Z,46.54
2017-07-01T09:09:36.645Z,46.73
2017-07-01T09:10:36.645Z,46.92
2017-07-01T09:11:36.650Z,47.22
2017-07-01T09:12:36.653Z,48.54
2017-07-01T09:13:36.665Z,49.02
2017-07-01T09:14:36.666Z,49.19
2017-07-01T09:15:36.676Z,49.96
2017-07-01T09:16:36.676Z,49.17
2017-07-01T09:17:36.682Z,50.52
2017-07-01T09:18:36.690Z,50.59
2017-07-01T09:19:36.383Z,50.69
2017-07-01T09:20:36.695Z,50.78
2017-07-01T09:21:36.699Z,50.76
2017-07-01T09:22:36.706Z,51.72
2017-07-01T09:23:36.707Z,51.43
2017-07-01T09:24:36.715Z,51.53
2017-07-01T09:25:36.717Z,52.2
2017-07-01T09:26:36.721Z,52.59
2017-07-01T09:27:36.414Z,52.01
2017-07-01T09:28:36.729Z,52.11
2017-07-01T09:29:36.731Z,51.92
2017-07-01T09:30:36.736Z,52.01
2017-07-01T09:31:36.741Z,52.49
2017-07-01T09:32:36.753Z,51.62
2017-07-01T09:33:36.758Z,51.34
2017-07-01T09:34:36.759Z,51.07
2017-07-01T09:35:36.761Z,51.34
2017-07-01T09:36:36.768Z,51.82
2017-07-01T09:37:36.767Z,52.01
2017-07-01T09:38:36.469Z,52.3
2017-07-01T09:39:36.774Z,52.01
2017-07-01T09:40:36.779Z,52.11
2017-07-01T09:41:36.785Z,51.82
2017-07-01T09:42:36.786Z,52.27
2017-07-01T09:43:36.840Z,52.66
2017-07-01T09:44:36.488Z,52.47
2017-07-01T09:45:36.801Z,52.4
2017-07-01T09:46:36.800Z,52.3
2017-07-01T09:47:36.816Z,52.69
2017-07-01T09:48:36.808Z,52.87
2017-07-01T09:49:36.822Z,52.69
2017-07-01T09:50:36.514Z,52.59
2017-07-01T09:51:36.824Z,51.82
2017-07-01T09:52:36.516Z,51.82
2017-07-01T09:53:36.515Z,52.49
2017-07-01T09:54:36.830Z,53.27
2017-07-01T09:55:36.835Z,52.01
2017-07-01T09:56:36.841Z,51.82
2017-07-01T09:57:36.843Z,52.61
2017-07-01T09:58:37.098Z,52.04
2017-07-01T09:59:36.850Z,51.17
2017-07-01T10:00:36.857Z,51.17
2017-07-01T10:01:36.859Z,51.26
2017-07-01T10:02:36.866Z,51.07
2017-07-01T10:03:36.555Z,50.88
2017-07-01T10:04:36.871Z,50.98
2017-07-01T10:05:36.882Z,50.49
2017-07-01T10:06:36.877Z,50.49
2017-07-01T10:07:36.890Z,51.26
2017-07-01T10:08:36.885Z,51.17
2017-07-01T10:09:36.901Z,51.17
2017-07-01T10:10:36.895Z,50.59
2017-07-01T10:11:36.900Z,51.07
2017-07-01T10:12:36.905Z,50.4
2017-07-01T10:13:37.007Z,50.49
2017-07-01T10:14:36.911Z,50.9
2017-07-01T10:15:36.914Z,50.69
2017-07-01T10:16:36.926Z,50.62
2017-07-01T10:17:36.924Z,49.94
2017-07-01T10:18:36.931Z,49.37
2017-07-01T10:19:36.620Z,49.75
2017-07-01T10:20:36.937Z,50.62
2017-07-01T10:21:36.628Z,50.81
2017-07-01T10:22:36.633Z,50.81
2017-07-01T10:23:36.951Z,50.52
2017-07-01T10:24:36.953Z,49
2017-07-01T10:25:36.645Z,49.29
2017-07-01T10:26:36.980Z,49.07
2017-07-01T10:27:36.977Z,49.46
2017-07-01T10:28:38.897Z,49.84
2017-07-01T10:29:36.979Z,50.81
2017-07-01T10:30:36.672Z,50.62
2017-07-01T10:31:36.987Z,50.21
2017-07-01T10:32:36.991Z,50.4
2017-07-01T10:33:36.994Z,50.4
2017-07-01T10:34:36.999Z,50.4
2017-07-01T10:35:36.688Z,50.49
2017-07-01T10:36:37.007Z,49.75
2017-07-01T10:37:37.014Z,49.46
2017-07-01T10:38:37.020Z,48.97
2017-07-01T10:39:37.019Z,48.71
2017-07-01T10:40:37.024Z,48.33
2017-07-01T10:41:37.035Z,48.52
2017-07-01T10:42:36.733Z,48.81
2017-07-01T10:43:37.289Z,49.1
2017-07-01T10:44:37.043Z,49.19
2017-07-01T10:45:36.733Z,49.29
2017-07-01T10:46:36.741Z,49.39
2017-07-01T10:47:36.743Z,49.37
2017-07-01T10:48:36.747Z,49.19
2017-07-01T10:49:37.187Z,49.48
2017-07-01T10:50:36.760Z,49.94
2017-07-01T10:51:37.075Z,49.65
2017-07-01T10:52:37.079Z,50.71
2017-07-01T10:53:36.768Z,50.23
2017-07-01T10:54:37.103Z,49.29
2017-07-01T10:55:36.787Z,49.96
2017-07-01T10:56:37.113Z,49.77
2017-07-01T10:57:36.804Z,49.48
2017-07-01T10:58:37.119Z,48.42
2017-07-01T10:59:37.113Z,48.71
2017-07-01T11:00:36.834Z,48.61
2017-07-01T11:01:37.121Z,48.83
2017-07-01T11:02:37.124Z,47.67
2017-07-01T11:03:36.815Z,47.96
2017-07-01T11:04:37.133Z,47.96
2017-07-01T11:05:37.140Z,47.99
2017-07-01T11:06:36.835Z,47.02
2017-07-01T11:07:37.157Z,46.47
2017-07-01T11:08:37.205Z,45.69
2017-07-01T11:09:37.179Z,45.52
2017-07-01T11:10:37.179Z,45.5
2017-07-01T11:11:37.194Z,45.79
2017-07-01T11:12:37.189Z,45.4
2017-07-01T11:13:37.196Z,45.4
2017-07-01T11:14:37.198Z,45.59
2017-07-01T11:15:37.192Z,46.37
2017-07-01T11:16:37.198Z,46.37
2017-07-01T11:17:36.891Z,46.17
2017-07-01T11:18:36.897Z,46.75
2017-07-01T11:19:36.899Z,45.98
2017-07-01T11:20:37.224Z,46.37
2017-07-01T11:21:36.909Z,46.08
2017-07-01T11:22:37.231Z,46.17
2017-07-01T11:23:37.245Z,46.17
2017-07-01T11:24:38.849Z,45.42
2017-07-01T11:25:37.262Z,44.56
2017-07-01T11:26:37.249Z,45.31
2017-07-01T11:27:37.256Z,46.27
2017-07-01T11:28:37.263Z,46.08
2017-07-01T11:29:37.211Z,47.14
2017-07-01T11:30:37.272Z,47.12
2017-07-01T11:31:36.973Z,47.12
2017-07-01T11:32:37.283Z,46.66
2017-07-01T11:33:37.295Z,45.89
2017-07-01T11:34:36.990Z,46.27
2017-07-01T11:35:37.306Z,45.5
2017-07-01T11:36:37.307Z,46.37
2017-07-01T11:37:37.309Z,46.66
2017-07-01T11:38:37.314Z,47.14
2017-07-01T11:39:37.010Z,46.75
2017-07-01T11:40:37.327Z,47.14
2017-07-01T11:41:37.331Z,46.17
2017-07-01T11:42:37.337Z,45.79
2017-07-01T11:43:37.343Z,46.75
2017-07-01T11:44:37.354Z,46.75
2017-07-01T11:45:37.355Z,46.2
2017-07-01T11:46:37.358Z,46.3
2017-07-01T11:47:37.368Z,45.33
2017-07-01T11:48:37.373Z,45.52
2017-07-01T11:49:37.373Z,45.21
2017-07-01T11:50:37.379Z,45.69
2017-07-01T11:51:37.071Z,45.59
2017-07-01T11:52:37.390Z,47.12
2017-07-01T11:53:37.395Z,47.31
2017-07-01T11:54:37.402Z,47.48
2017-07-01T11:55:37.409Z,47.96
2017-07-01T11:56:37.410Z,47.96
2017-07-01T11:57:37.419Z,47.29
2017-07-01T11:58:37.425Z,48.16
2017-07-01T11:59:37.458Z,49.02
2017-07-01T12:00:37.434Z,48.16
2017-07-01T12:01:37.458Z,47.77
2017-07-01T12:02:37.128Z,48.25
2017-07-01T12:03:37.444Z,48.23
2017-07-01T12:04:37.479Z,48.71
2017-07-01T12:05:37.459Z,48.71
2017-07-01T12:06:37.473Z,49.48
2017-07-01T12:07:37.473Z,49.94
2017-07-01T12:08:37.161Z,50.13
2017-07-01T12:09:37.476Z,51
2017-07-01T12:10:37.476Z,50.81
2017-07-01T12:11:37.483Z,50.71
2017-07-01T12:12:37.490Z,50.9
2017-07-01T12:13:37.507Z,51.2
2017-07-01T12:14:37.523Z,51.36
2017-07-01T12:15:37.549Z,51.46
2017-07-01T12:16:37.507Z,51.39
2017-07-01T12:17:37.521Z,51.1
2017-07-01T12:18:37.528Z,50.81
2017-07-01T12:19:37.524Z,51.26
2017-07-01T12:20:37.214Z,50.59
2017-07-01T12:21:37.547Z,51.65
2017-07-01T12:22:37.227Z,50.78
2017-07-01T12:23:37.754Z,51.36
2017-07-01T12:24:37.536Z,52.04
2017-07-01T12:25:37.540Z,52.13
2017-07-01T12:26:37.541Z,52.04
2017-07-01T12:27:37.547Z,51.56
2017-07-01T12:28:37.567Z,51.75
2017-07-01T12:29:37.554Z,51.36
2017-07-01T12:30:38.722Z,50.69
2017-07-01T12:31:37.563Z,50.71
2017-07-01T12:32:37.566Z,50.81
2017-07-01T12:33:37.583Z,50.81
2017-07-01T12:34:37.588Z,50.81
2017-07-01T12:35:37.652Z,51
2017-07-01T12:36:37.588Z,51
2017-07-01T12:37:37.587Z,51.29
2017-07-01T12:38:37.591Z,51.39
2017-07-01T12:39:37.595Z,51.77
2017-07-01T12:40:37.598Z,50.52
2017-07-01T12:41:37.602Z,51.39
2017-07-01T12:42:37.631Z,51.94
2017-07-01T12:43:37.302Z,51.84
2017-07-01T12:44:37.615Z,52.91
2017-07-01T12:45:37.308Z,52.52
2017-07-01T12:46:37.622Z,52.4
2017-07-01T12:47:37.628Z,52.59
2017-07-01T12:48:37.631Z,52.59
2017-07-01T12:49:37.632Z,53.17
2017-07-01T12:50:37.639Z,53.27
2017-07-01T12:51:37.641Z,53.55
2017-07-01T12:52:37.644Z,53.36
2017-07-01T12:53:37.645Z,53.45
2017-07-01T12:54:37.651Z,53.45
2017-07-01T12:55:37.341Z,53.27